createdAt,value
2019-04-12T00:02:14.527Z,3.34
2019-04-12T00:04:44.842Z,3.26
2019-04-12T00:07:15.428Z,3.16
2019-04-12T00:09:45.686Z,3.16
2019-04-12T00:12:16.409Z,3.07
2019-04-12T00:14:46.592Z,3.06
2019-04-12T00:17:16.865Z,2.99
2019-04-12T00:19:50.146Z,2.96
2019-04-12T00:22:20.395Z,2.89
2019-04-12T00:24:50.643Z,2.86
2019-04-12T00:27:21.012Z,2.83
2019-04-12T00:29:51.826Z,2.78
2019-04-12T00:32:22.205Z,2.71
2019-04-12T00:34:53.347Z,2.67
2019-04-12T00:37:25.219Z,2.67
2019-04-12T00:39:58.021Z,2.63
2019-04-12T00:42:27.857Z,2.58
2019-04-12T00:44:58.021Z,2.52
2019-04-12T00:47:28.992Z,2.48
2019-04-12T00:49:59.257Z,2.42
2019-04-12T00:52:30.017Z,2.41
2019-04-12T00:55:00.462Z,2.37
2019-04-12T00:57:30.857Z,2.27
2019-04-12T01:00:01.096Z,2.17
2019-04-12T01:02:51.014Z,2.11
2019-04-12T01:05:26.498Z,2.10
2019-04-12T01:08:07.045Z,2.09
2019-04-12T01:10:38.300Z,2.03
2019-04-12T01:13:12.464Z,2.03
2019-04-12T01:15:42.867Z,2.02
2019-04-12T01:18:13.361Z,1.98
2019-04-12T01:20:44.369Z,1.94
2019-04-12T01:23:16.052Z,1.92
2019-04-12T01:25:46.202Z,1.90
2019-04-12T01:28:18.055Z,1.87
2019-04-12T01:30:48.287Z,1.81
2019-04-12T01:33:18.522Z,1.77
2019-04-12T01:35:48.775Z,1.76
2019-04-12T01:38:18.921Z,1.75
2019-04-12T01:40:49.083Z,1.70
2019-04-12T01:43:19.363Z,1.60
2019-04-12T01:45:49.526Z,1.53
2019-04-12T01:48:19.740Z,1.44
2019-04-12T01:50:49.897Z,1.34
2019-04-12T01:53:20.253Z,1.31
2019-04-12T01:55:50.667Z,1.24
2019-04-12T01:58:20.821Z,1.18
2019-04-12T02:00:51.255Z,1.13
2019-04-12T02:03:21.808Z,1.15
2019-04-12T02:05:52.158Z,1.09
2019-04-12T02:08:22.273Z,1.08
2019-04-12T02:10:53.775Z,1.01
2019-04-12T02:13:24.388Z,0.97
2019-04-12T02:15:54.683Z,0.89
2019-04-12T02:18:25.010Z,0.87
2019-04-12T02:20:55.387Z,0.81
2019-04-12T02:23:25.678Z,0.76
2019-04-12T02:25:55.851Z,0.69
2019-04-12T02:28:27.661Z,0.64
2019-04-12T02:31:01.619Z,0.60
2019-04-12T02:33:32.025Z,0.57
2019-04-12T02:36:03.870Z,0.57
2019-04-12T02:38:34.251Z,0.52
2019-04-12T02:41:05.202Z,0.50
2019-04-12T02:43:35.647Z,0.44
2019-04-12T02:46:07.325Z,0.38
2019-04-12T02:48:52.884Z,0.35
2019-04-12T02:51:29.364Z,0.34
2019-04-12T02:54:33.818Z,0.30
2019-04-12T02:57:20.121Z,0.29
2019-04-12T02:59:50.371Z,0.20
2019-04-12T03:02:23.514Z,0.18
2019-04-12T03:04:53.753Z,0.17
2019-04-12T03:07:24.308Z,0.15
2019-04-12T03:09:55.988Z,0.16
2019-04-12T03:12:26.973Z,0.15
2019-04-12T03:14:58.962Z,0.12
2019-04-12T03:17:29.571Z,0.12
2019-04-12T03:20:00.248Z,0.11
2019-04-12T03:22:30.561Z,0.09
2019-04-12T03:25:01.724Z,0.11
2019-04-12T03:27:32.013Z,0.19
2019-04-12T03:30:03.247Z,0.26
2019-04-12T03:32:33.746Z,0.26
2019-04-12T03:35:04.493Z,0.31
2019-04-12T03:37:34.890Z,0.34
2019-04-12T03:40:06.184Z,0.35
2019-04-12T03:42:36.775Z,0.35
2019-04-12T03:45:07.424Z,0.42
2019-04-12T03:47:38.239Z,0.43
2019-04-12T03:50:09.642Z,0.44
2019-04-12T03:52:39.895Z,0.47
2019-04-12T03:55:11.340Z,0.48
2019-04-12T03:57:41.970Z,0.53
2019-04-12T04:00:15.216Z,0.58
2019-04-12T04:02:46.139Z,0.63
2019-04-12T04:05:16.686Z,0.67
2019-04-12T04:07:46.919Z,0.69
2019-04-12T04:10:17.358Z,0.68
2019-04-12T04:12:47.518Z,0.66
2019-04-12T04:15:17.954Z,0.65
2019-04-12T04:18:03.433Z,0.63
2019-04-12T04:21:10.872Z,0.65
2019-04-12T04:23:49.351Z,0.67
2019-04-12T04:26:38.821Z,0.69
2019-04-12T04:29:32.720Z,0.72
2019-04-12T04:32:09.162Z,0.74
2019-04-12T04:34:39.305Z,0.76
2019-04-12T04:37:09.867Z,0.75
2019-04-12T04:39:41.313Z,0.77
2019-04-12T04:42:11.753Z,0.78
2019-04-12T04:44:42.233Z,0.81
2019-04-12T04:47:12.868Z,0.86
2019-04-12T04:49:43.193Z,0.89
2019-04-12T04:52:16.470Z,0.92
2019-04-12T04:54:46.396Z,0.97
2019-04-12T04:57:17.813Z,0.99
2019-04-12T04:59:48.065Z,1.02
2019-04-12T05:02:18.327Z,1.09
2019-04-12T05:04:48.577Z,1.15
2019-04-12T05:07:18.804Z,1.20
2019-04-12T05:09:49.264Z,1.22
2019-04-12T05:12:19.742Z,1.31
2019-04-12T05:14:50.084Z,1.40
2019-04-12T05:17:20.588Z,1.45
2019-04-12T05:19:51.203Z,1.46
2019-04-12T05:22:21.508Z,1.57
2019-04-12T05:24:51.775Z,1.60
2019-04-12T05:27:22.191Z,1.67
2019-04-12T05:29:52.991Z,1.70
2019-04-12T05:32:23.156Z,1.70
2019-04-12T05:34:53.631Z,1.78
2019-04-12T05:37:24.215Z,1.90
2019-04-12T05:39:54.628Z,2.00
2019-04-12T05:42:25.049Z,2.13
2019-04-12T05:44:55.462Z,2.21
2019-04-12T05:47:44.699Z,2.29
2019-04-12T05:50:21.778Z,2.35
2019-04-12T05:52:52.349Z,2.46
2019-04-12T05:55:24.300Z,2.49
2019-04-12T05:58:10.208Z,2.54
2019-04-12T06:00:59.326Z,2.66
2019-04-12T06:03:30.023Z,2.78
2019-04-12T06:06:01.952Z,2.84
2019-04-12T06:08:32.396Z,2.85
2019-04-12T06:11:04.367Z,2.99
2019-04-12T06:13:35.092Z,3.06
2019-04-12T06:16:05.347Z,3.17
2019-04-12T06:18:36.546Z,3.29
2019-04-12T06:21:29.271Z,3.41
2019-04-12T06:23:59.766Z,3.48
2019-04-12T06:26:52.254Z,3.54
2019-04-12T06:29:22.744Z,3.61
2019-04-12T06:31:53.268Z,3.69
2019-04-12T06:34:23.875Z,3.77
2019-04-12T06:36:54.214Z,3.92
2019-04-12T06:39:24.564Z,4.07
2019-04-12T06:41:54.994Z,4.25
2019-04-12T06:44:25.283Z,4.40
2019-04-12T06:46:55.490Z,4.59
2019-04-12T06:49:26.169Z,4.76
2019-04-12T06:51:56.511Z,4.88
2019-04-12T06:54:29.671Z,4.98
2019-04-12T06:57:21.658Z,5.10
2019-04-12T06:59:43.729Z,5.26
2019-04-12T07:02:22.880Z,5.46
2019-04-12T07:04:55.562Z,5.66
2019-04-12T07:07:26.042Z,5.60
2019-04-12T07:09:56.338Z,5.77
2019-04-12T07:12:26.582Z,6.02
2019-04-12T07:14:57.206Z,5.89
2019-04-12T07:17:27.565Z,5.73
2019-04-12T07:20:00.842Z,5.75
2019-04-12T07:22:31.094Z,5.98
2019-04-12T07:25:01.350Z,6.09
2019-04-12T07:27:34.766Z,5.99
2019-04-12T07:30:04.268Z,6.28
2019-04-12T07:32:34.796Z,6.28
2019-04-12T07:35:05.672Z,6.62
2019-04-12T07:37:36.152Z,7.10
2019-04-12T07:40:06.571Z,7.21
2019-04-12T07:42:37.924Z,6.93
2019-04-12T07:45:08.500Z,6.85
2019-04-12T07:47:38.954Z,7.10
2019-04-12T07:50:22.181Z,7.41
2019-04-12T07:52:52.753Z,7.74
2019-04-12T07:55:37.444Z,8.08
2019-04-12T07:58:13.781Z,8.25
2019-04-12T08:01:09.323Z,9.01
2019-04-12T08:03:51.984Z,9.39
2019-04-12T08:06:38.103Z,9.55
2019-04-12T08:09:09.241Z,9.92
2019-04-12T08:11:39.469Z,9.98
2019-04-12T08:14:09.810Z,10.05
2019-04-12T08:16:39.997Z,9.96
2019-04-12T08:19:10.357Z,9.50
2019-04-12T08:21:40.832Z,9.48
2019-04-12T08:24:11.271Z,9.50
2019-04-12T08:26:41.658Z,10.00
2019-04-12T08:29:11.825Z,10.73
2019-04-12T08:31:43.098Z,11.07
2019-04-12T08:34:13.256Z,11.18
2019-04-12T08:36:43.438Z,11.65
2019-04-12T08:39:13.621Z,11.75
2019-04-12T08:41:43.828Z,12.09
2019-04-12T08:44:15.303Z,12.75
2019-04-12T08:46:45.901Z,13.48
2019-04-12T08:49:16.699Z,13.97
2019-04-12T08:51:47.575Z,14.41
2019-04-12T08:54:17.907Z,14.94
2019-04-12T08:56:48.117Z,14.94
2019-04-12T08:59:18.769Z,14.96
2019-04-12T09:01:49.417Z,13.74
2019-04-12T09:04:21.148Z,14.00
2019-04-12T09:06:51.574Z,14.57
2019-04-12T09:09:23.985Z,15.43
2019-04-12T09:11:54.624Z,16.73
2019-04-12T09:14:25.155Z,17.11
2019-04-12T09:16:55.523Z,16.46
2019-04-12T09:19:44.942Z,18.33
2019-04-12T09:22:50.827Z,18.33
2019-04-12T09:25:28.616Z,19.26
2019-04-12T09:27:59.319Z,19.40
2019-04-12T09:30:30.046Z,18.96
2019-04-12T09:33:00.605Z,18.23
2019-04-12T09:35:31.204Z,18.51
2019-04-12T09:38:01.610Z,19.18
2019-04-12T09:40:32.294Z,19.11
2019-04-12T09:43:02.657Z,17.90
2019-04-12T09:45:33.715Z,18.76
2019-04-12T09:48:03.996Z,19.09
2019-04-12T09:50:34.273Z,20.31
2019-04-12T09:53:04.692Z,20.63
2019-04-12T09:55:35.249Z,20.79
2019-04-12T09:58:05.685Z,20.44
2019-04-12T10:00:36.059Z,19.80
2019-04-12T10:03:07.011Z,20.53
2019-04-12T10:05:37.426Z,22.62
2019-04-12T10:08:07.638Z,24.23
2019-04-12T10:10:37.902Z,25.31
2019-04-12T10:13:09.043Z,26.02
2019-04-12T10:15:39.272Z,26.80
2019-04-12T10:18:09.506Z,27.98
2019-04-12T10:20:39.781Z,28.12
2019-04-12T10:23:10.088Z,28.53
2019-04-12T10:25:40.500Z,28.87
2019-04-12T10:28:10.993Z,28.87
2019-04-12T10:30:41.394Z,28.01
2019-04-12T10:33:11.728Z,28.41
2019-04-12T10:35:42.034Z,29.46
2019-04-12T10:38:12.602Z,30.20
2019-04-12T10:40:42.913Z,31.28
2019-04-12T10:43:13.316Z,30.54
2019-04-12T10:45:58.939Z,30.43
2019-04-12T10:48:42.168Z,31.60
2019-04-12T10:51:46.944Z,30.21
2019-04-12T10:54:36.179Z,28.79
2019-04-12T10:57:07.418Z,30.78
2019-04-12T10:59:37.790Z,32.08
2019-04-12T11:02:08.441Z,32.06
2019-04-12T11:04:41.638Z,33.41
2019-04-12T11:07:11.969Z,33.27
2019-04-12T11:09:42.383Z,31.81
2019-04-12T11:12:13.078Z,31.81
2019-04-12T11:14:43.773Z,31.69
2019-04-12T11:17:14.285Z,32.76
2019-04-12T11:19:44.769Z,32.53
2019-04-12T11:22:14.945Z,33.72
2019-04-12T11:24:45.320Z,32.59
2019-04-12T11:27:15.594Z,33.22
2019-04-12T11:29:45.841Z,33.31
2019-04-12T11:32:16.344Z,31.90
2019-04-12T11:34:46.949Z,32.27
2019-04-12T11:37:17.424Z,32.05
2019-04-12T11:39:47.938Z,33.13
2019-04-12T11:42:20.110Z,32.79
2019-04-12T11:44:50.612Z,31.78
2019-04-12T11:47:20.747Z,32.35
2019-04-12T11:49:51.394Z,30.99
2019-04-12T11:52:21.951Z,30.54
2019-04-12T11:54:52.425Z,30.81
2019-04-12T11:57:22.740Z,31.43
2019-04-12T11:59:53.116Z,30.62
2019-04-12T12:02:47.121Z,30.16
2019-04-12T12:05:31.463Z,31.70
2019-04-12T12:08:20.725Z,32.29
2019-04-12T12:11:12.854Z,32.20
2019-04-12T12:14:08.299Z,31.13
2019-04-12T12:16:53.709Z,30.24
2019-04-12T12:19:24.307Z,29.60
2019-04-12T12:21:54.593Z,29.32
2019-04-12T12:24:24.796Z,29.35
2019-04-12T12:26:56.793Z,29.72
2019-04-12T12:29:27.695Z,29.44
2019-04-12T12:32:01.070Z,30.77
2019-04-12T12:34:31.363Z,31.96
2019-04-12T12:37:01.703Z,30.68
2019-04-12T12:39:32.032Z,29.63
2019-04-12T12:42:02.918Z,27.87
2019-04-12T12:44:33.154Z,25.13
2019-04-12T12:47:03.477Z,20.56
2019-04-12T12:49:34.249Z,20.82
2019-04-12T12:52:04.664Z,21.05
2019-04-12T12:54:34.978Z,21.50
2019-04-12T12:57:05.295Z,21.44
2019-04-12T12:59:35.947Z,20.06
2019-04-12T13:02:06.210Z,19.44
2019-04-12T13:04:36.436Z,21.22
2019-04-12T13:07:06.750Z,23.69
2019-04-12T13:09:37.142Z,22.02
2019-04-12T13:12:07.338Z,22.61
2019-04-12T13:14:37.664Z,22.06
2019-04-12T13:17:07.940Z,22.11
2019-04-12T13:19:38.578Z,22.16
2019-04-12T13:22:09.484Z,19.97
2019-04-12T13:24:40.483Z,19.80
2019-04-12T13:27:11.364Z,18.81
2019-04-12T13:29:42.447Z,18.49
2019-04-12T13:32:50.037Z,18.49
2019-04-12T13:35:39.186Z,19.07
2019-04-12T13:38:26.910Z,18.66
2019-04-12T13:40:58.357Z,18.63
2019-04-12T13:43:28.776Z,18.71
2019-04-12T13:45:59.522Z,18.56
2019-04-12T13:48:30.014Z,18.55
2019-04-12T13:51:00.330Z,18.68
2019-04-12T13:53:30.978Z,18.40
2019-04-12T13:56:01.290Z,18.10
2019-04-12T13:58:31.625Z,18.01
2019-04-12T14:01:01.854Z,18.03
2019-04-12T14:03:32.067Z,17.68
2019-04-12T14:06:03.444Z,17.19
2019-04-12T14:08:33.712Z,17.51
2019-04-12T14:11:04.488Z,17.63
2019-04-12T14:13:35.884Z,17.64
2019-04-12T14:16:06.811Z,16.40
2019-04-12T14:18:37.231Z,15.69
2019-04-12T14:21:07.495Z,15.35
2019-04-12T14:23:37.819Z,15.87
2019-04-12T14:26:08.729Z,16.14
2019-04-12T14:28:39.242Z,15.77
2019-04-12T14:31:23.673Z,15.73
2019-04-12T14:34:15.962Z,15.86
2019-04-12T14:36:55.426Z,15.90
2019-04-12T14:39:27.499Z,15.54
2019-04-12T14:41:58.455Z,15.53
2019-04-12T14:44:43.475Z,15.53
2019-04-12T14:47:20.330Z,14.81
2019-04-12T14:49:50.825Z,15.09
2019-04-12T14:52:21.153Z,15.09
2019-04-12T14:54:51.904Z,14.87
2019-04-12T14:57:22.422Z,14.68
2019-04-12T14:59:53.491Z,13.44
2019-04-12T15:02:26.796Z,13.85
2019-04-12T15:04:58.079Z,13.49
2019-04-12T15:07:28.814Z,12.66
2019-04-12T15:09:59.139Z,12.82
2019-04-12T15:12:29.384Z,12.78
2019-04-12T15:14:59.710Z,11.97
2019-04-12T15:17:30.010Z,12.40
2019-04-12T15:20:00.572Z,12.60
2019-04-12T15:22:30.963Z,12.62
2019-04-12T15:25:01.284Z,12.47
2019-04-12T15:27:31.573Z,12.75
2019-04-12T15:30:01.912Z,12.72
2019-04-12T15:32:32.699Z,12.82
2019-04-12T15:35:03.178Z,12.95
2019-04-12T15:37:33.345Z,12.36
2019-04-12T15:40:04.171Z,12.59
2019-04-12T15:42:34.705Z,12.73
2019-04-12T15:45:05.966Z,12.58
2019-04-12T15:47:36.619Z,12.25
2019-04-12T15:50:08.720Z,11.80
2019-04-12T15:52:39.377Z,12.26
2019-04-12T15:55:09.680Z,12.43
2019-04-12T15:57:40.292Z,12.26
2019-04-12T16:00:19.658Z,12.39
2019-04-12T16:02:50.923Z,12.37
2019-04-12T16:05:21.266Z,11.82
2019-04-12T16:07:55.039Z,11.61
2019-04-12T16:10:25.546Z,11.56
2019-04-12T16:13:12.724Z,11.47
2019-04-12T16:16:31.789Z,11.29
2019-04-12T16:19:05.291Z,10.95
2019-04-12T16:21:35.926Z,11.01
2019-04-12T16:24:06.494Z,10.96
2019-04-12T16:26:37.014Z,10.59
2019-04-12T16:29:26.269Z,10.77
2019-04-12T16:32:10.990Z,10.91
2019-04-12T16:35:03.331Z,11.02
2019-04-12T16:37:46.127Z,10.97
2019-04-12T16:40:16.843Z,10.92
2019-04-12T16:42:47.316Z,10.93
2019-04-12T16:45:17.966Z,10.93
2019-04-12T16:47:48.532Z,10.94
2019-04-12T16:50:18.975Z,10.86
2019-04-12T16:52:49.690Z,10.69
2019-04-12T16:55:20.118Z,10.81
2019-04-12T16:57:50.465Z,10.80
2019-04-12T17:00:34.791Z,10.44
2019-04-12T17:03:05.546Z,10.49
2019-04-12T17:05:36.363Z,10.38
2019-04-12T17:08:10.321Z,10.34
2019-04-12T17:10:40.945Z,10.37
2019-04-12T17:13:11.996Z,10.17
2019-04-12T17:15:43.379Z,9.95
2019-04-12T17:18:13.905Z,10.03
2019-04-12T17:20:44.366Z,9.91
2019-04-12T17:23:14.681Z,9.69
2019-04-12T17:25:45.152Z,9.60
2019-04-12T17:28:15.427Z,9.76
2019-04-12T17:30:45.929Z,9.72
2019-04-12T17:33:16.490Z,9.60
2019-04-12T17:35:46.841Z,9.44
2019-04-12T17:38:17.419Z,9.40
2019-04-12T17:40:47.834Z,9.41
2019-04-12T17:43:18.187Z,9.25
2019-04-12T17:45:48.720Z,9.31
2019-04-12T17:48:49.997Z,9.38
2019-04-12T17:51:27.663Z,9.11
2019-04-12T17:54:05.160Z,9.28
2019-04-12T17:56:35.924Z,9.12
2019-04-12T17:59:06.342Z,9.09
2019-04-12T18:01:41.261Z,8.83
2019-04-12T18:04:16.044Z,8.78
2019-04-12T18:06:46.575Z,8.58
2019-04-12T18:09:16.813Z,8.48
2019-04-12T18:11:48.835Z,8.57
2019-04-12T18:14:19.241Z,8.63
2019-04-12T18:16:51.171Z,8.64
2019-04-12T18:19:21.610Z,8.64
2019-04-12T18:21:52.386Z,8.67
2019-04-12T18:24:22.774Z,8.60
2019-04-12T18:26:53.215Z,8.50
2019-04-12T18:29:23.516Z,8.38
2019-04-12T18:31:54.047Z,8.45
2019-04-12T18:40:53.730Z,8.54
2019-04-12T18:43:24.077Z,8.44
2019-04-12T18:45:54.271Z,8.40
2019-04-12T18:48:24.947Z,8.45
2019-04-12T18:50:55.483Z,8.44
2019-04-12T18:53:26.334Z,8.42
2019-04-12T18:55:57.171Z,8.43
2019-04-12T18:58:27.795Z,8.41
2019-04-12T19:00:58.178Z,8.36
2019-04-12T19:03:28.700Z,8.35
2019-04-12T19:05:59.509Z,8.30
2019-04-12T19:08:29.957Z,8.07
2019-04-12T19:11:00.666Z,8.11
2019-04-12T19:13:31.144Z,8.11
2019-04-12T19:16:02.135Z,8.09
2019-04-12T19:18:32.940Z,8.11
2019-04-12T19:21:03.363Z,8.09
2019-04-12T19:23:34.231Z,8.03
2019-04-12T19:26:04.964Z,7.97
2019-04-12T19:28:35.637Z,7.81
2019-04-12T19:31:08.450Z,7.85
2019-04-12T19:33:57.012Z,7.77
2019-04-12T19:37:01.783Z,7.67
2019-04-12T19:39:39.447Z,7.56
2019-04-12T19:42:11.674Z,7.52
2019-04-12T19:44:42.744Z,7.65
2019-04-12T19:47:13.147Z,7.66
2019-04-12T19:49:44.027Z,7.64
2019-04-12T19:52:15.034Z,7.61
2019-04-12T19:54:45.586Z,7.60
2019-04-12T19:57:15.995Z,7.53
2019-04-12T19:59:46.485Z,7.48
2019-04-12T20:02:17.043Z,7.44
2019-04-12T20:04:47.550Z,7.34
2019-04-12T20:07:17.855Z,7.21
2019-04-12T20:09:48.490Z,7.12
2019-04-12T20:12:20.719Z,7.01
2019-04-12T20:14:51.090Z,6.83
2019-04-12T20:17:21.652Z,6.73
2019-04-12T20:19:52.468Z,6.66
2019-04-12T20:22:23.051Z,6.57
2019-04-12T20:24:53.730Z,6.48
2019-04-12T20:27:24.721Z,6.48
2019-04-12T20:29:55.255Z,6.43
2019-04-12T20:32:25.664Z,6.40
2019-04-12T20:34:55.872Z,6.43
2019-04-12T20:37:26.568Z,6.37
2019-04-12T20:39:58.049Z,6.30
2019-04-12T20:42:28.500Z,6.27
2019-04-12T20:44:59.145Z,6.26
2019-04-12T20:47:29.602Z,6.24
2019-04-12T20:49:59.999Z,6.18
2019-04-12T20:52:30.456Z,6.17
2019-04-12T20:55:01.135Z,6.13
2019-04-12T20:57:34.424Z,6.09
2019-04-12T21:00:06.360Z,5.99
2019-04-12T21:02:40.646Z,5.94
2019-04-12T21:05:09.717Z,5.89
2019-04-12T21:07:40.044Z,5.88
2019-04-12T21:10:10.642Z,5.84
2019-04-12T21:12:41.009Z,5.80
2019-04-12T21:15:11.634Z,5.75
2019-04-12T21:17:59.877Z,5.72
2019-04-12T21:20:30.164Z,5.70
2019-04-12T21:23:00.632Z,5.68
2019-04-12T21:25:30.810Z,5.64
2019-04-12T21:28:01.202Z,5.59
2019-04-12T21:30:32.112Z,5.60
2019-04-12T21:33:02.635Z,5.52
2019-04-12T21:35:33.274Z,5.54
2019-04-12T21:38:03.690Z,5.46
2019-04-12T21:40:34.096Z,5.45
2019-04-12T21:43:05.681Z,5.33
2019-04-12T21:45:36.197Z,5.40
2019-04-12T21:48:06.755Z,5.35
2019-04-12T21:50:37.523Z,5.35
2019-04-12T21:53:07.686Z,5.31
2019-04-12T21:55:38.196Z,5.23
2019-04-12T21:58:08.389Z,5.13
2019-04-12T22:00:56.113Z,5.01
2019-04-12T22:03:40.077Z,4.91
2019-04-12T22:06:00.112Z,4.73
2019-04-12T22:08:31.059Z,4.62
2019-04-12T22:11:01.438Z,4.56
2019-04-12T22:13:31.903Z,4.52
2019-04-12T22:16:02.103Z,4.37
2019-04-12T22:18:32.328Z,4.31
2019-04-12T22:21:02.623Z,4.28
2019-04-12T22:23:51.021Z,4.22
2019-04-12T22:26:21.351Z,4.12
2019-04-12T22:28:51.570Z,4.04
2019-04-12T22:31:24.273Z,4.01
2019-04-12T22:33:54.855Z,4.01
2019-04-12T22:36:25.096Z,3.94
2019-04-12T22:38:55.415Z,3.90
2019-04-12T22:41:25.767Z,3.86
2019-04-12T22:43:57.381Z,3.82
2019-04-12T22:46:27.756Z,3.84
2019-04-12T22:48:57.963Z,3.82
2019-04-12T22:51:29.345Z,3.73
2019-04-12T22:53:59.623Z,3.60
2019-04-12T22:56:29.801Z,3.55
2019-04-12T22:59:00.064Z,3.53
2019-04-12T23:01:30.898Z,3.51
2019-04-12T23:04:05.586Z,3.42
2019-04-12T23:06:33.281Z,3.37
2019-04-12T23:09:04.440Z,3.35
2019-04-12T23:11:34.935Z,3.34
2019-04-12T23:14:05.953Z,3.32
2019-04-12T23:16:37.188Z,3.33
2019-04-12T23:19:07.481Z,3.28
2019-04-12T23:21:38.142Z,3.32
2019-04-12T23:24:08.584Z,3.30
2019-04-12T23:26:38.939Z,3.36
2019-04-12T23:29:09.186Z,3.38
2019-04-12T23:31:43.102Z,3.44
2019-04-12T23:34:35.276Z,3.49
2019-04-12T23:37:05.858Z,3.50
2019-04-12T23:39:36.053Z,3.48
2019-04-12T23:42:06.279Z,3.44
2019-04-12T23:44:36.540Z,3.39
2019-04-12T23:47:06.635Z,3.40
2019-04-12T23:49:37.965Z,3.41
2019-04-12T23:52:08.199Z,3.44
2019-04-12T23:54:38.487Z,3.45
2019-04-12T23:57:08.643Z,3.44
2019-04-12T23:59:39.079Z,3.46
